Time;durP1;ratioP1;P1;durP2;ratioP2;P2;SDS_P1;SDS_P2;PMS_P1;PMS_P2;Temp;Humidity;BMP_temperature;BMP_pressure;BME280_temperature;BME280_humidity;BME280_pressure;Samples;Min_cycle;Max_cycle;Signal;HPM_P1;HPM_P2
2022/10/05 00:01:45;;;;;;;13.98;7.00;;;;;;;14.33;61.99;99945.77;4316222;81;28564;-75
2022/10/05 00:07:47;;;;;;;12.65;6.12;;;;;;;14.62;62.16;99948.58;4316466;81;28577;-74
2022/10/05 00:13:48;;;;;;;11.68;6.20;;;;;;;14.63;61.12;99945.64;4315728;81;28525;-75
2022/10/05 00:19:52;;;;;;;13.55;6.85;;;;;;;14.84;60.32;99938.02;4316692;81;28587;-75
2022/10/05 00:25:59;;;;;;;11.03;6.00;;;;;;;14.77;60.41;99938.14;4316824;81;28593;-76
2022/10/05 00:32:00;;;;;;;11.73;6.20;;;;;;;14.69;60.48;99928.98;4285773;81;28529;-75
2022/10/05 00:38:02;;;;;;;11.60;6.70;;;;;;;14.62;60.50;99929.12;4315988;81;28484;-75
2022/10/05 00:44:37;;;;;;;13.25;6.42;;;;;;;14.65;61.08;99926.47;4316564;81;28521;-76
2022/10/05 00:51:00;;;;;;;13.00;5.47;;;;;;;14.57;61.18;99921.41;4318321;81;28512;-76
2022/10/05 00:57:16;;;;;;;8.65;5.47;;;;;;;14.50;61.20;99915.58;4317087;81;35990;-76
2022/10/05 01:03:31;;;;;;;10.65;6.35;;;;;;;14.57;61.30;99926.83;4318114;81;28525;-76
2022/10/05 01:09:58;;;;;;;10.78;5.78;;;;;;;14.57;62.18;99929.53;4314703;81;28535;-76
2022/10/05 01:16:18;;;;;;;;;;;;;;;14.48;61.78;99935.29;4323697;80;28573;-74
2022/10/05 01:22:55;;;;;;;12.73;6.05;;;;;;;14.36;61.75;99929.86;4323353;81;20231;-75
2022/10/05 01:29:03;;;;;;;9.70;5.42;;;;;;;14.29;62.09;99919.70;4321522;80;28549;-76
2022/10/05 01:35:34;;;;;;;9.98;5.97;;;;;;;14.12;61.84;99920.09;4329256;81;28496;-78
2022/10/05 01:41:52;;;;;;;12.28;6.08;;;;;;;13.93;62.07;99914.24;4290849;80;28596;-76
2022/10/05 01:48:22;;;;;;;15.08;6.72;;;;;;;13.71;61.82;99919.34;4286341;81;28451;-77
2022/10/05 01:54:47;;;;;;;15.05;7.10;;;;;;;13.62;63.30;99915.31;4288682;81;28504;-76
2022/10/05 02:01:06;;;;;;;10.93;6.40;;;;;;;13.60;62.71;99904.76;4289188;81;28470;-76
2022/10/05 02:07:14;;;;;;;10.28;6.00;;;;;;;13.53;63.07;99911.58;4286633;81;28565;-76
2022/10/05 02:13:22;;;;;;;11.78;6.25;;;;;;;13.51;63.13;99898.03;4285202;80;28562;-75
2022/10/05 02:19:38;;;;;;;12.63;6.20;;;;;;;13.37;62.48;99894.11;4305519;81;28548;-75
2022/10/05 02:25:44;;;;;;;14.40;6.50;;;;;;;13.21;63.72;99905.55;4343785;81;28538;-76
2022/10/05 02:31:58;;;;;;;12.18;6.20;;;;;;;12.97;66.37;99918.94;4335902;81;28563;-77
2022/10/05 02:38:24;;;;;;;10.93;6.40;;;;;;;13.36;65.13;99903.80;4323697;81;28555;-77
2022/10/05 02:44:46;;;;;;;13.55;6.12;;;;;;;13.35;64.00;99896.22;4361667;80;28533;-76
2022/10/05 02:51:23;;;;;;;9.23;5.67;;;;;;;13.54;64.20;99900.27;4393133;80;28519;-76
2022/10/05 02:57:39;;;;;;;8.85;5.28;;;;;;;13.49;63.59;99890.69;4320174;80;28524;-76
2022/10/05 03:04:07;;;;;;;10.75;5.35;;;;;;;13.51;62.68;99875.06;4380590;79;28472;-79
2022/10/05 03:10:14;;;;;;;10.23;5.55;;;;;;;13.50;63.07;99881.52;4394099;79;28515;-79
2022/10/05 03:16:40;;;;;;;;;;;;;;;13.45;62.82;99877.33;4381597;79;28507;-79
2022/10/05 03:22:59;;;;;;;11.85;5.87;;;;;;;13.49;62.50;99877.18;4395625;79;20226;-80
2022/10/05 03:29:31;;;;;;;12.03;5.90;;;;;;;13.31;63.16;99882.05;4379275;79;28453;-78
2022/10/05 03:36:07;;;;;;;10.10;5.70;;;;;;;13.21;62.62;99877.20;4394282;79;28477;-78
2022/10/05 03:42:27;;;;;;;;;;;;;;;13.03;62.89;99874.02;4399804;79;28523;-78
2022/10/05 03:48:52;;;;;;;11.65;6.33;;;;;;;13.22;63.96;99901.29;4369363;79;20295;-78
2022/10/05 03:55:18;;;;;;;10.93;5.60;;;;;;;13.04;67.92;99913.45;4364268;79;28545;-77
2022/10/05 04:01:24;;;;;;;9.13;5.45;;;;;;;13.29;64.54;99912.52;4359294;79;28543;-77
2022/10/05 04:07:45;;;;;;;12.98;5.47;;;;;;;13.29;63.63;99928.72;4324912;79;28561;-78
2022/10/05 04:14:03;;;;;;;10.00;5.87;;;;;;;13.22;63.77;99915.30;4373315;79;28528;-78
2022/10/05 04:20:23;;;;;;;11.45;6.00;;;;;;;13.37;63.76;99889.25;4339711;79;28539;-79
2022/10/05 04:26:46;;;;;;;9.13;5.78;;;;;;;13.31;63.88;99868.03;4350173;79;28549;-81
2022/10/05 04:32:56;;;;;;;9.65;5.40;;;;;;;13.13;64.67;99854.05;4343861;79;28570;-79
2022/10/05 04:39:36;;;;;;;10.53;6.00;;;;;;;13.07;64.42;99859.00;4335194;80;28581;-83
2022/10/05 04:46:01;;;;;;;11.12;5.78;;;;;;;13.00;64.24;99857.73;4297056;80;28766;-80
2022/10/05 04:52:27;;;;;;;10.40;5.63;;;;;;;13.00;63.71;99850.98;4232658;81;28526;-80
2022/10/05 04:59:02;;;;;;;12.70;6.00;;;;;;;13.07;65.02;99872.50;4291203;81;28566;-80
2022/10/05 05:05:29;;;;;;;12.15;5.75;;;;;;;13.14;65.85;99862.95;4268921;81;28492;-82
2022/10/05 05:11:48;;;;;;;13.25;5.78;;;;;;;13.28;64.17;99849.59;4332104;79;28550;-81
2022/10/05 05:18:18;;;;;;;11.90;6.25;;;;;;;13.44;63.48;99864.36;4333746;81;29248;-79
2022/10/05 05:25:03;;;;;;;11.90;6.05;;;;;;;13.48;63.45;99853.89;4326203;79;28548;-79
2022/10/05 05:31:16;;;;;;;10.25;6.10;;;;;;;13.46;62.98;99870.86;4274110;82;28565;-81
2022/10/05 05:38:00;;;;;;;9.98;6.05;;;;;;;13.66;62.93;99866.53;4309805;82;28498;-81
2022/10/05 05:44:26;;;;;;;12.83;7.23;;;;;;;13.71;62.83;99871.25;4312205;81;28526;-80
2022/10/05 05:50:49;;;;;;;12.13;6.50;;;;;;;13.92;62.67;99873.92;4269759;82;50761;-82
2022/10/05 05:56:59;;;;;;;12.40;5.97;;;;;;;14.05;62.74;99872.34;4271431;81;28494;-78
2022/10/05 06:03:32;;;;;;;11.35;6.08;;;;;;;14.20;62.90;99867.82;4295082;81;28535;-81
2022/10/05 06:09:50;;;;;;;8.85;5.95;;;;;;;14.40;63.15;99837.44;4261480;81;28560;-84
2022/10/05 06:16:24;;;;;;;14.00;6.65;;;;;;;14.81;63.09;99843.75;4256914;82;28524;-79
2022/10/05 06:22:37;;;;;;;14.50;6.95;;;;;;;14.31;66.89;99872.95;4254085;82;28508;-79
2022/10/05 06:28:41;;;;;;;12.90;6.90;;;;;;;14.95;66.36;99871.89;4248284;82;28537;-78
2022/10/05 06:34:57;;;;;;;17.05;8.30;;;;;;;15.26;65.22;99895.53;4248837;82;28542;-78
2022/10/05 06:41:11;;;;;;;13.88;7.55;;;;;;;15.56;65.05;99906.11;4250566;82;28588;-79
2022/10/05 06:47:23;;;;;;;14.43;7.05;;;;;;;15.78;65.18;99905.95;4261300;83;28487;-78
2022/10/05 06:53:41;;;;;;;13.58;5.78;;;;;;;16.02;64.61;99895.27;4183382;82;28528;-79
2022/10/05 07:00:01;;;;;;;13.58;6.35;;;;;;;16.27;62.95;99891.86;4261065;81;28576;-79
2022/10/05 07:06:38;;;;;;;10.93;5.62;;;;;;;16.45;62.99;99878.02;4219708;81;29202;-77
2022/10/05 07:13:25;;;;;;;14.43;6.50;;;;;;;16.78;63.50;99888.23;4253721;81;28549;-78
2022/10/05 07:19:38;;;;;;;12.25;5.70;;;;;;;17.08;63.42;99896.51;4269725;81;28526;-78
2022/10/05 07:25:58;;;;;;;13.83;6.12;;;;;;;17.62;62.85;99904.42;4271596;81;28544;-78
2022/10/05 07:32:16;;;;;;;10.23;5.60;;;;;;;17.93;62.47;99894.66;4274185;83;28532;-79
2022/10/05 07:38:39;;;;;;;11.35;5.55;;;;;;;18.15;62.95;99873.36;4181132;82;28529;-76
2022/10/05 07:44:51;;;;;;;11.68;4.83;;;;;;;18.44;62.62;99853.12;4236521;81;28548;-78
2022/10/05 07:51:24;;;;;;;9.43;4.15;;;;;;;18.90;62.42;99859.34;4189406;83;28559;-78
2022/10/05 07:58:11;;;;;;;7.80;3.25;;;;;;;19.32;61.86;99863.05;4242901;81;28605;-78
2022/10/05 08:04:29;;;;;;;12.68;5.17;;;;;;;19.51;61.96;99854.60;4219972;82;28485;-78
2022/10/05 08:10:36;;;;;;;9.83;5.60;;;;;;;19.45;60.92;99867.97;4169049;82;28577;-79
2022/10/05 08:16:39;;;;;;;12.68;5.70;;;;;;;19.49;60.27;99864.97;4211129;82;28611;-79
2022/10/05 08:22:46;;;;;;;9.38;4.95;;;;;;;19.96;59.91;99855.48;4248448;81;28513;-78
2022/10/05 08:29:18;;;;;;;6.72;3.87;;;;;;;20.23;59.32;99846.16;4276193;81;28997;-79
2022/10/05 08:35:42;;;;;;;5.55;2.30;;;;;;;20.58;59.06;99855.91;4253201;82;28553;-78
2022/10/05 08:42:04;;;;;;;7.72;2.35;;;;;;;21.14;57.22;99854.08;4161587;83;28570;-80
2022/10/05 08:49:01;;;;;;;4.42;2.40;;;;;;;21.75;55.17;99866.28;4249296;81;28524;-78
2022/10/05 08:55:29;;;;;;;4.83;2.00;;;;;;;22.58;54.21;99865.52;4265682;82;28539;-79
2022/10/05 09:01:36;;;;;;;4.25;2.12;;;;;;;23.00;52.87;99865.28;4243180;82;28516;-79
2022/10/05 09:08:05;;;;;;;2.90;2.08;;;;;;;23.09;52.19;99877.23;4243838;81;28574;-80
2022/10/05 09:14:15;;;;;;;4.83;2.12;;;;;;;23.47;51.62;99857.79;4254035;81;28572;-81
2022/10/05 09:20:40;;;;;;;3.60;1.98;;;;;;;23.48;50.09;99845.70;4228523;81;28534;-79
2022/10/05 09:27:11;;;;;;;5.35;2.60;;;;;;;23.73;50.99;99854.66;4243344;82;28548;-77
2022/10/05 09:33:54;;;;;;;5.47;2.15;;;;;;;23.66;50.28;99864.08;4251876;81;28534;-79
2022/10/05 09:40:36;;;;;;;4.17;2.20;;;;;;;24.13;50.15;99879.00;4242781;82;28516;-79
2022/10/05 09:46:54;;;;;;;4.60;2.20;;;;;;;24.38;49.21;99871.42;4239959;81;28524;-78
2022/10/05 09:53:06;;;;;;;4.97;2.40;;;;;;;24.74;48.30;99856.96;4261551;82;28513;-82
2022/10/05 09:59:42;;;;;;;3.77;2.55;;;;;;;24.88;48.60;99850.11;4245622;81;28549;-82
2022/10/05 10:05:57;;;;;;;;;;;;;;;25.21;48.62;99862.31;4244719;82;28547;-80
2022/10/05 10:12:31;;;;;;;6.83;3.10;;;;;;;24.95;48.36;99854.64;4247276;82;20747;-80
2022/10/05 10:19:01;;;;;;;4.90;3.00;;;;;;;24.74;48.32;99856.96;4262413;81;28503;-81
2022/10/05 10:25:26;;;;;;;6.95;3.52;;;;;;;24.21;48.66;99856.33;4207266;81;28554;-81
2022/10/05 10:31:49;;;;;;;5.80;3.22;;;;;;;25.25;49.46;99846.80;4241368;83;28556;-80
2022/10/05 10:38:09;;;;;;;6.85;3.33;;;;;;;24.87;49.53;99846.53;4179232;81;28506;-80
2022/10/05 10:44:31;;;;;;;6.75;3.22;;;;;;;24.97;49.53;99839.19;4229694;81;28502;-81
2022/10/05 10:51:12;;;;;;;5.00;3.02;;;;;;;24.80;49.90;99848.08;4214911;83;28571;-81
2022/10/05 10:57:50;;;;;;;4.03;2.50;;;;;;;24.93;49.64;99854.11;4212555;83;28556;-81
2022/10/05 11:04:23;;;;;;;5.35;3.20;;;;;;;24.78;49.36;99858.00;4186391;82;28574;-82
2022/10/05 11:10:31;;;;;;;6.00;2.80;;;;;;;25.78;49.06;99846.44;4136757;83;28563;-83
2022/10/05 11:17:10;;;;;;;5.70;2.83;;;;;;;26.29;48.08;99847.05;4236080;82;28474;-82
2022/10/05 11:23:35;;;;;;;4.47;2.87;;;;;;;26.41;47.78;99845.09;4256786;82;28562;-81
2022/10/05 11:30:34;;;;;;;3.22;2.45;;;;;;;26.26;47.44;99836.67;4251605;81;28527;-80
2022/10/05 11:43:32;;;;;;;3.75;2.62;;;;;;;26.82;45.46;99836.22;4265891;82;28590;-81
2022/10/05 11:49:58;;;;;;;3.98;2.45;;;;;;;27.18;45.09;99825.48;4305097;81;28598;-81
2022/10/05 11:56:20;;;;;;;4.33;2.17;;;;;;;27.21;44.73;99826.80;4294039;81;28614;-80
2022/10/05 12:02:49;;;;;;;3.95;2.60;;;;;;;27.27;43.96;99823.55;4290060;81;28725;-83
2022/10/05 12:09:26;;;;;;;3.98;2.77;;;;;;;27.49;44.01;99818.16;4245429;81;28513;-83
2022/10/05 12:15:41;;;;;;;4.65;2.65;;;;;;;27.60;44.46;99816.73;4249981;81;28505;-81
2022/10/05 12:21:58;;;;;;;3.72;2.80;;;;;;;27.55;44.75;99817.72;4246659;83;28492;-81
2022/10/05 12:28:05;;;;;;;3.85;2.67;;;;;;;27.51;45.26;99808.41;4261062;82;28530;-81
2022/10/05 12:34:34;;;;;;;6.30;2.60;;;;;;;27.46;45.43;99808.59;4254424;82;28597;-81
2022/10/05 12:40:46;;;;;;;4.17;2.50;;;;;;;27.27;44.05;99807.53;4300851;81;28541;-81
2022/10/05 12:47:04;;;;;;;6.75;2.75;;;;;;;27.40;44.66;99800.23;4279360;82;28563;-82
2022/10/05 12:53:22;;;;;;;3.50;2.15;;;;;;;27.38;45.13;99792.84;4243991;82;28487;-81
2022/10/05 12:59:45;;;;;;;2.98;1.67;;;;;;;26.96;43.78;99791.39;4251605;83;28545;-79
2022/10/05 13:06:07;;;;;;;1.85;1.65;;;;;;;26.58;43.28;99787.25;4251310;81;28480;-80
2022/10/05 13:12:24;;;;;;;1.42;1.32;;;;;;;26.57;42.53;99769.64;4255938;81;28498;-81
2022/10/05 13:18:58;;;;;;;4.70;1.90;;;;;;;26.45;43.42;99761.42;4264721;81;28536;-81
2022/10/05 13:25:27;;;;;;;4.30;1.70;;;;;;;26.58;43.28;99772.09;4277558;82;28565;-83
2022/10/05 13:31:43;;;;;;;3.15;1.70;;;;;;;26.56;42.60;99756.44;4276689;82;28506;-82
2022/10/05 13:38:08;;;;;;;3.30;1.90;;;;;;;26.60;43.30;99756.58;4262448;81;28493;-81
2022/10/05 13:44:40;;;;;;;5.55;2.02;;;;;;;26.54;42.65;99760.64;4233881;82;28467;-81
2022/10/05 13:51:04;;;;;;;5.53;2.10;;;;;;;26.64;43.54;99756.20;4246998;81;28532;-82
2022/10/05 13:57:29;;;;;;;5.62;1.95;;;;;;;26.77;44.32;99754.99;4216589;82;28546;-83
2022/10/05 14:03:36;;;;;;;4.65;1.95;;;;;;;26.73;45.03;99749.30;4282622;81;28508;-83
2022/10/05 14:09:46;;;;;;;3.50;2.10;;;;;;;26.61;45.81;99749.95;4227307;82;28512;-83
2022/10/05 14:16:13;;;;;;;5.12;2.00;;;;;;;26.40;45.06;99756.63;4244889;82;28514;-82
2022/10/05 14:22:24;;;;;;;4.05;2.00;;;;;;;26.33;44.41;99741.95;4264949;81;28525;-83
2022/10/05 14:28:30;;;;;;;5.97;2.00;;;;;;;25.98;44.46;99737.09;4258238;81;28583;-82
2022/10/05 14:34:39;;;;;;;5.03;1.97;;;;;;;25.94;44.98;99724.28;4247247;82;28522;-84
2022/10/05 14:40:40;;;;;;;4.10;2.02;;;;;;;25.83;45.45;99719.05;4224698;82;28528;-83
2022/10/05 14:46:55;;;;;;;3.30;2.05;;;;;;;25.77;46.02;99729.15;4255468;81;28586;-83
2022/10/05 14:53:17;;;;;;;4.35;2.65;;;;;;;25.65;46.15;99722.84;4236414;82;28600;-82
2022/10/05 14:59:49;;;;;;;5.55;2.40;;;;;;;25.52;47.22;99719.87;4281450;81;28542;-78
2022/10/05 15:05:57;;;;;;;3.87;2.47;;;;;;;25.40;47.63;99723.73;4258889;81;28502;-80
2022/10/05 15:12:02;;;;;;;5.42;2.60;;;;;;;25.14;49.34;99710.61;4233954;82;28579;-83
2022/10/05 15:18:27;;;;;;;4.92;2.15;;;;;;;24.88;50.98;99708.48;4230684;81;28483;-81
2022/10/05 15:24:56;;;;;;;5.70;2.77;;;;;;;24.77;51.51;99696.87;4291985;81;28467;-82
2022/10/05 15:31:24;;;;;;;6.58;2.50;;;;;;;24.45;52.63;99690.44;4295154;81;28548;-84
2022/10/05 15:37:48;;;;;;;5.90;2.30;;;;;;;24.24;55.09;99685.38;4221319;82;28514;-84
2022/10/05 15:44:35;;;;;;;8.38;2.27;;;;;;;23.74;56.55;99689.66;4303481;81;28514;-84
2022/10/05 15:50:49;;;;;;;4.87;2.40;;;;;;;23.39;58.20;99690.55;4230602;81;28529;-83
2022/10/05 15:57:05;;;;;;;8.05;2.30;;;;;;;23.15;57.97;99683.80;4252817;82;28494;-83
2022/10/05 16:03:48;;;;;;;5.83;2.62;;;;;;;22.92;59.24;99687.73;4251683;83;28791;-82
2022/10/05 16:10:04;;;;;;;7.35;2.85;;;;;;;22.37;60.62;99684.35;4249226;81;28522;-81
2022/10/05 16:16:19;;;;;;;5.47;2.52;;;;;;;22.22;60.57;99680.46;4265303;81;28511;-80
2022/10/05 16:22:41;;;;;;;7.85;2.80;;;;;;;21.99;61.46;99676.89;4233799;81;28564;-82
2022/10/05 16:29:02;;;;;;;4.90;2.90;;;;;;;22.01;60.67;99671.13;4275101;82;28510;-81
2022/10/05 16:35:23;;;;;;;6.65;2.95;;;;;;;21.88;61.03;99670.48;4276265;81;28514;-80
2022/10/05 16:41:41;;;;;;;6.17;2.90;;;;;;;21.82;61.03;99672.45;4241880;82;28509;-82
2022/10/05 16:48:03;;;;;;;6.97;3.37;;;;;;;21.54;61.52;99672.16;4267245;81;28639;-84
2022/10/05 16:54:34;;;;;;;9.80;4.00;;;;;;;21.44;62.04;99666.23;4239233;81;28583;-84
2022/10/05 17:01:09;;;;;;;7.28;4.20;;;;;;;21.25;62.36;99653.83;4198650;82;28526;-81
2022/10/05 17:07:44;;;;;;;11.05;5.12;;;;;;;21.18;62.29;99663.74;4205299;82;28499;-82
2022/10/05 17:14:19;;;;;;;6.10;4.03;;;;;;;21.17;62.25;99665.64;4236780;81;28536;-80
2022/10/05 17:20:38;;;;;;;6.28;3.50;;;;;;;21.22;62.04;99662.05;4146419;82;28561;-80
2022/10/05 17:27:24;;;;;;;5.80;3.62;;;;;;;21.16;62.07;99661.28;4228351;81;28617;-80
2022/10/05 17:33:35;;;;;;;8.53;4.42;;;;;;;21.08;61.79;99654.27;4234782;83;28501;-80
2022/10/05 17:39:51;;;;;;;7.72;4.72;;;;;;;21.02;62.14;99652.92;4253399;82;28469;-82
2022/10/05 17:45:59;;;;;;;11.70;5.42;;;;;;;20.97;61.74;99645.31;4267862;82;28608;-81
2022/10/05 17:58:53;;;;;;;8.58;4.67;;;;;;;20.65;63.14;99646.62;4254917;82;28467;-80
2022/10/05 18:05:13;;;;;;;9.00;4.67;;;;;;;20.53;63.02;99647.78;4229521;82;28617;-78
2022/10/05 18:11:29;;;;;;;8.35;4.53;;;;;;;20.30;63.21;99654.20;4247134;82;28525;-80
2022/10/05 18:17:53;;;;;;;9.98;5.85;;;;;;;20.14;64.50;99661.66;4192271;83;28501;-82
2022/10/05 18:24:16;;;;;;;11.28;5.47;;;;;;;20.09;64.96;99655.40;4233346;83;28573;-82
2022/10/05 18:30:24;;;;;;;8.45;5.10;;;;;;;20.28;63.90;99646.02;4278876;81;28540;-82
2022/10/05 18:37:07;;;;;;;7.20;4.95;;;;;;;20.15;64.06;99648.80;4289568;81;28530;-81
2022/10/05 18:43:46;;;;;;;8.40;4.95;;;;;;;19.96;64.41;99652.18;4275814;81;28544;-82
2022/10/05 18:50:17;;;;;;;9.25;5.22;;;;;;;20.00;63.79;99642.89;4280511;81;28502;-82
2022/10/05 18:56:43;;;;;;;12.20;5.87;;;;;;;19.66;64.62;99648.42;4253289;81;28473;-81
2022/10/05 19:03:08;;;;;;;9.58;5.95;;;;;;;19.56;64.65;99662.08;4279742;81;28503;-82
2022/10/05 19:09:26;;;;;;;;;;;;;;;19.53;64.71;99668.09;4240844;81;28613;-82
2022/10/05 19:15:48;;;;;;;;;;;;;;;19.45;65.36;99657.18;4289591;81;20223;-82
2022/10/05 19:22:14;;;;;;;10.40;6.37;;;;;;;19.21;65.01;99676.31;4278023;81;20239;-83
2022/10/05 19:28:38;;;;;;;13.00;6.17;;;;;;;18.96;65.97;99671.64;4203443;81;28614;-82
2022/10/05 19:35:09;;;;;;;9.30;5.58;;;;;;;18.97;65.46;99679.25;4269973;81;28890;-82
2022/10/05 19:41:21;;;;;;;11.60;6.40;;;;;;;18.89;65.09;99672.44;4297296;81;28650;-81
2022/10/05 19:47:47;;;;;;;14.25;7.53;;;;;;;18.67;64.95;99682.47;4278261;81;28521;-82
2022/10/05 19:53:54;;;;;;;;;;;;;;;18.59;65.33;99682.20;4273146;81;28508;-82
2022/10/05 19:59:57;;;;;;;14.85;7.72;;;;;;;18.42;66.33;99678.34;4265728;81;20212;-81
2022/10/05 20:06:05;;;;;;;12.90;7.50;;;;;;;18.31;66.73;99691.09;4280001;81;28504;-83
2022/10/05 20:12:14;;;;;;;12.70;7.87;;;;;;;18.27;66.92;99690.80;4276505;81;28515;-85
2022/10/05 20:31:46;;;;;;;10.68;5.85;;;;;;;18.28;64.95;99705.23;4210872;81;28541;-83
2022/10/05 20:37:52;;;;;;;13.20;7.60;;;;;;;18.13;64.44;99704.09;4255970;81;28515;-82
2022/10/05 20:43:55;;;;;;;14.63;6.63;;;;;;;18.00;65.25;99701.80;4244225;81;28553;-83
2022/10/05 20:50:04;;;;;;;11.18;6.72;;;;;;;17.93;65.05;99696.61;4268696;81;28498;-83
2022/10/05 20:56:04;;;;;;;13.88;7.12;;;;;;;17.87;64.97;99699.84;4283314;81;28514;-82
2022/10/05 21:02:09;;;;;;;15.78;7.37;;;;;;;17.68;64.86;99701.63;4278884;81;28540;-83
2022/10/05 21:08:20;;;;;;;12.95;7.65;;;;;;;17.56;64.84;99701.02;4258450;81;28494;-82
2022/10/05 21:14:22;;;;;;;11.93;7.80;;;;;;;17.31;65.97;99709.27;4249936;81;28530;-84
2022/10/05 21:20:24;;;;;;;11.53;7.47;;;;;;;17.31;66.26;99704.36;4238125;81;28574;-84
2022/10/05 21:26:27;;;;;;;11.75;7.15;;;;;;;17.32;65.75;99704.11;4270375;81;28529;-82
2022/10/05 21:32:31;;;;;;;13.32;7.17;;;;;;;17.31;65.12;99705.19;4244559;82;28580;-82
2022/10/05 21:38:34;;;;;;;12.63;6.85;;;;;;;17.18;65.23;99703.72;4227923;84;28494;-83
2022/10/05 22:23:23;;;;;;;;;;;;;;;;;;;;;
2022/10/05 22:29:25;;;;;;;12.05;6.80;;;;;;;16.91;68.63;99704.52;2977917;118;28587;-81
2022/10/05 22:35:26;;;;;;;13.03;6.95;;;;;;;16.86;67.21;99699.86;3367609;103;28586;-81
2022/10/05 22:41:28;;;;;;;13.40;7.62;;;;;;;16.72;67.03;99704.91;3589187;88;28539;-82
2022/10/05 22:47:29;;;;;;;12.98;7.95;;;;;;;16.62;66.74;99700.72;3857206;89;28535;-82
2022/10/05 22:53:30;;;;;;;11.60;7.62;;;;;;;16.47;66.93;99701.89;3969382;88;28602;-83
2022/10/05 22:59:32;;;;;;;14.03;8.25;;;;;;;16.30;66.95;99699.54;4078322;85;28511;-82
2022/10/05 23:05:33;;;;;;;14.80;7.45;;;;;;;16.09;68.33;99707.14;4175693;82;28550;-82
2022/10/05 23:11:35;;;;;;;13.20;7.72;;;;;;;16.21;68.46;99713.81;4115386;82;28532;-82
2022/10/05 23:17:38;;;;;;;14.73;7.92;;;;;;;16.09;68.24;99715.28;4176912;84;28619;-82
2022/10/05 23:23:42;;;;;;;13.98;7.03;;;;;;;16.17;67.66;99717.01;4115525;84;28466;-83
2022/10/05 23:29:44;;;;;;;11.90;7.37;;;;;;;16.05;67.79;99727.16;4226003;82;28540;-83
2022/10/05 23:35:46;;;;;;;12.30;6.72;;;;;;;15.99;67.35;99733.60;4291540;81;28589;-81
2022/10/05 23:41:47;;;;;;;10.95;6.60;;;;;;;15.94;67.26;99737.06;4261250;82;28567;-81
2022/10/05 23:47:48;;;;;;;11.68;7.22;;;;;;;15.72;67.53;99750.01;4254169;81;28490;-81
2022/10/05 23:53:50;;;;;;;15.05;7.67;;;;;;;15.66;66.80;99747.44;4254360;82;28523;-81
2022/10/05 23:59:51;;;;;;;9.08;6.10;;;;;;;15.71;65.97;99757.02;4265454;81;28499;-82
